Time,TemperatureF,DewpointF,PressureIn,WindDirection,WindDirectionDegrees,WindSpeedMPH,WindSpeedGustMPH,Humidity,HourlyPrecipIn,Conditions,Clouds,dailyrainin,SoftwareType,DateUTC
2013-02-05 00:00:00,13.8,-16.2,28.70,East,82,0.0,3.1,24,0.00,,,0.00,LWC V2.00 B2112,2013-02-05 05:00:00,
2013-02-05 00:05:00,13.6,-16.4,28.70,East,82,2.2,2.7,24,0.00,,,0.00,LWC V2.00 B2112,2013-02-05 05:05:00,
2013-02-05 00:10:00,14.2,-15.9,28.70,East,82,0.0,2.2,24,0.00,,,0.00,LWC V2.00 B2112,2013-02-05 05:10:00,
2013-02-05 00:15:00,14.2,-15.9,28.70,East,82,0.0,2.2,24,0.00,,,0.00,LWC V2.00 B2112,2013-02-05 05:15:00,
2013-02-05 00:20:00,14.0,-16.1,28.70,ENE,61,0.0,2.2,24,0.00,,,0.00,LWC V2.00 B2112,2013-02-05 05:20:00,
2013-02-05 00:25:00,14.2,-15.9,28.70,ENE,61,0.0,2.2,24,0.00,,,0.00,LWC V2.00 B2112,2013-02-05 05:25:00,
2013-02-05 00:30:00,14.5,-15.6,28.70,NNE,28,0.0,3.1,24,0.00,,,0.00,LWC V2.00 B2112,2013-02-05 05:30:00,
2013-02-05 00:35:00,13.8,-16.2,28.70,NW,306,0.0,3.1,24,0.00,,,0.00,LWC V2.00 B2112,2013-02-05 05:35:00,
2013-02-05 00:40:00,13.6,-16.4,28.70,NNW,330,0.0,3.1,24,0.00,,,0.00,LWC V2.00 B2112,2013-02-05 05:40:00,
2013-02-05 00:45:00,13.8,-16.2,28.70,ENE,61,0.0,4.0,24,0.00,,,0.00,LWC V2.00 B2112,2013-02-05 05:45:00,
2013-02-05 00:50:00,14.0,-16.1,28.70,ENE,65,0.0,4.0,24,0.00,,,0.00,LWC V2.00 B2112,2013-02-05 05:50:00,
2013-02-05 00:55:00,13.8,-16.2,28.67,SW,225,2.7,4.0,24,0.00,,,0.00,LWC V2.00 B2112,2013-02-05 05:55:00,
2013-02-05 01:00:00,13.8,-16.2,28.70,NNW,336,3.1,4.0,24,0.00,,,0.00,LWC V2.00 B2112,2013-02-05 06:00:00,
2013-02-05 01:05:00,13.6,-16.4,28.70,NW,306,0.0,4.0,24,0.00,,,0.00,LWC V2.00 B2112,2013-02-05 06:05:00,
2013-02-05 01:10:00,14.0,-16.1,28.67,WSW,249,2.7,4.0,24,0.00,,,0.00,LWC V2.00 B2112,2013-02-05 06:10:00,
2013-02-05 01:15:00,13.8,-16.2,28.70,NW,321,0.0,4.0,24,0.00,,,0.00,LWC V2.00 B2112,2013-02-05 06:15:00,
2013-02-05 01:20:00,14.2,-15.9,28.70,East,85,0.0,4.0,24,0.00,,,0.00,LWC V2.00 B2112,2013-02-05 06:20:00,
2013-02-05 01:25:00,13.8,-16.2,28.70,East,85,0.0,4.0,24,0.00,,,0.00,LWC V2.00 B2112,2013-02-05 06:25:00,
2013-02-05 01:30:00,13.6,-16.4,28.67,SSE,168,0.0,4.0,24,0.00,,,0.00,LWC V2.00 B2112,2013-02-05 06:30:00,
2013-02-05 01:35:00,14.5,-15.6,28.70,SE,144,0.0,4.0,24,0.00,,,0.00,LWC V2.00 B2112,2013-02-05 06:35:00,
2013-02-05 01:40:00,14.4,-15.8,28.70,East,80,0.0,4.0,24,0.00,,,0.00,LWC V2.00 B2112,2013-02-05 06:40:00,
2013-02-05 01:45:00,14.2,-15.9,28.70,East,85,0.0,4.0,24,0.00,,,0.00,LWC V2.00 B2112,2013-02-05 06:45:00,
2013-02-05 01:50:00,14.9,-15.3,28.70,SSE,163,0.0,4.0,24,0.00,,,0.00,LWC V2.00 B2112,2013-02-05 06:50:00,
2013-02-05 01:55:00,14.5,-15.6,28.70,SSE,163,0.0,4.0,24,0.00,,,0.00,LWC V2.00 B2112,2013-02-05 06:55:00,
2013-02-05 02:00:00,15.3,-15.0,28.70,SE,124,0.0,4.0,24,0.00,,,0.00,LWC V2.00 B2112,2013-02-05 07:00:00,
2013-02-05 02:05:00,15.1,-15.1,28.70,SSE,150,0.0,0.0,24,0.00,,,0.00,LWC V2.00 B2112,2013-02-05 07:05:00,
2013-02-05 02:10:00,14.7,-15.4,28.70,SSE,163,0.0,0.0,24,0.00,,,0.00,LWC V2.00 B2112,2013-02-05 07:10:00,
2013-02-05 02:15:00,15.1,-15.1,28.70,SSE,154,0.0,0.0,24,0.00,,,0.00,LWC V2.00 B2112,2013-02-05 07:15:00,
2013-02-05 02:20:00,15.3,-15.0,28.70,SSE,149,0.0,0.0,24,0.00,,,0.00,LWC V2.00 B2112,2013-02-05 07:20:00,
2013-02-05 02:25:00,15.3,-15.0,28.70,SSE,149,0.0,0.0,24,0.00,,,0.00,LWC V2.00 B2112,2013-02-05 07:25:00,
2013-02-05 02:30:00,15.3,-15.0,28.70,SSE,149,0.0,0.0,24,0.00,,,0.00,LWC V2.00 B2112,2013-02-05 07:30:00,
2013-02-05 02:35:00,15.3,-15.0,28.70,SSE,149,0.0,0.0,24,0.00,,,0.00,LWC V2.00 B2112,2013-02-05 07:35:00,
2013-02-05 02:40:00,15.3,-15.0,28.70,SSE,149,0.0,0.0,24,0.00,,,0.00,LWC V2.00 B2112,2013-02-05 07:40:00,
2013-02-05 02:45:00,15.1,-15.1,28.70,SE,133,0.0,0.0,24,0.00,,,0.00,LWC V2.00 B2112,2013-02-05 07:45:00,
2013-02-05 02:50:00,15.1,-15.1,28.70,SE,133,0.0,0.0,24,0.00,,,0.00,LWC V2.00 B2112,2013-02-05 07:50:00,
2013-02-05 02:55:00,15.1,-15.1,28.70,SSW,209,0.0,0.0,24,0.00,,,0.00,LWC V2.00 B2112,2013-02-05 07:55:00,
2013-02-05 03:00:00,15.1,-15.1,28.70,SSW,209,0.0,0.0,24,0.00,,,0.00,LWC V2.00 B2112,2013-02-05 08:00:00,
2013-02-05 03:05:00,15.1,-15.1,28.70,SSW,209,0.0,0.0,24,0.00,,,0.00,LWC V2.00 B2112,2013-02-05 08:05:00,
2013-02-05 03:10:00,15.1,-15.1,28.70,SE,133,0.0,0.0,24,0.00,,,0.00,LWC V2.00 B2112,2013-02-05 08:10:00,
2013-02-05 03:15:00,15.1,-15.1,28.70,SE,133,0.0,0.0,24,0.00,,,0.00,LWC V2.00 B2112,2013-02-05 08:15:00,
2013-02-05 03:20:00,15.4,-14.8,28.70,SE,138,0.0,0.0,24,0.00,,,0.00,LWC V2.00 B2112,2013-02-05 08:20:00,
2013-02-05 03:25:00,15.4,-14.8,28.70,North,3,0.0,0.0,24,0.00,,,0.00,LWC V2.00 B2112,2013-02-05 08:25:00,
2013-02-05 03:30:00,15.4,-14.8,28.70,North,3,0.0,0.0,24,0.00,,,0.00,LWC V2.00 B2112,2013-02-05 08:30:00,
2013-02-05 03:35:00,15.4,-14.8,28.70,North,3,0.0,0.0,24,0.00,,,0.00,LWC V2.00 B2112,2013-02-05 08:35:00,
2013-02-05 03:40:00,15.4,-14.8,28.70,North,3,0.0,0.0,24,0.00,,,0.00,LWC V2.00 B2112,2013-02-05 08:40:00,
2013-02-05 03:45:00,15.4,-14.8,28.70,North,3,0.0,0.0,24,0.00,,,0.00,LWC V2.00 B2112,2013-02-05 08:45:00,
2013-02-05 03:50:00,15.8,-14.5,28.70,North,3,0.0,0.0,24,0.00,,,0.00,LWC V2.00 B2112,2013-02-05 08:50:00,
2013-02-05 03:55:00,15.8,-14.5,28.70,North,3,0.0,0.0,24,0.00,,,0.00,LWC V2.00 B2112,2013-02-05 08:55:00,
2013-02-05 04:00:00,15.8,-14.5,28.70,North,3,0.0,0.0,24,0.00,,,0.00,LWC V2.00 B2112,2013-02-05 09:00:00,
2013-02-05 04:05:00,15.8,-14.5,28.70,North,3,0.0,0.0,24,0.00,,,0.00,LWC V2.00 B2112,2013-02-05 09:05:00,
2013-02-05 04:10:00,15.6,-14.7,28.70,North,3,0.0,0.0,24,0.00,,,0.00,LWC V2.00 B2112,2013-02-05 09:10:00,
2013-02-05 04:15:00,15.6,-14.7,28.70,North,3,0.0,0.0,24,0.00,,,0.00,LWC V2.00 B2112,2013-02-05 09:15:00,
2013-02-05 04:20:00,15.8,-14.5,28.70,North,3,0.0,0.0,24,0.00,,,0.00,LWC V2.00 B2112,2013-02-05 09:20:00,
2013-02-05 04:25:00,15.3,-15.0,28.70,North,2,0.0,0.0,24,0.00,,,0.00,LWC V2.00 B2112,2013-02-05 09:25:00,
2013-02-05 04:30:00,15.3,-15.0,28.70,North,3,0.0,0.0,24,0.00,,,0.00,LWC V2.00 B2112,2013-02-05 09:30:00,
2013-02-05 04:35:00,15.3,-15.0,28.70,North,2,0.0,0.0,24,0.00,,,0.00,LWC V2.00 B2112,2013-02-05 09:35:00,
2013-02-05 04:40:00,15.4,-14.8,28.70,North,3,0.0,0.0,24,0.00,,,0.00,LWC V2.00 B2112,2013-02-05 09:40:00,
2013-02-05 04:45:00,15.4,-14.8,28.70,North,3,0.0,0.0,24,0.00,,,0.00,LWC V2.00 B2112,2013-02-05 09:45:00,
2013-02-05 04:50:00,15.4,-14.8,28.70,North,3,0.0,0.0,24,0.00,,,0.00,LWC V2.00 B2112,2013-02-05 09:50:00,
2013-02-05 04:55:00,15.1,-15.1,28.70,North,0,0.0,0.0,24,0.00,,,0.00,LWC V2.00 B2112,2013-02-05 09:55:00,
2013-02-05 05:00:00,15.1,-15.1,28.70,North,0,0.0,0.0,24,0.00,,,0.00,LWC V2.00 B2112,2013-02-05 10:00:00,
2013-02-05 05:05:00,15.1,-15.1,28.70,North,0,0.0,0.0,24,0.00,,,0.00,LWC V2.00 B2112,2013-02-05 10:05:00,
2013-02-05 05:10:00,15.1,-15.1,28.70,North,0,0.0,0.0,24,0.00,,,0.00,LWC V2.00 B2112,2013-02-05 10:10:00,
2013-02-05 05:15:00,15.1,-15.1,28.70,North,0,0.0,0.0,24,0.00,,,0.00,LWC V2.00 B2112,2013-02-05 10:15:00,
2013-02-05 05:20:00,14.9,-15.3,28.70,North,0,0.0,0.0,24,0.00,,,0.00,LWC V2.00 B2112,2013-02-05 10:20:00,
2013-02-05 05:25:00,14.9,-15.3,28.70,North,0,0.0,0.0,24,0.00,,,0.00,LWC V2.00 B2112,2013-02-05 10:25:00,
2013-02-05 05:29:00,15.1,-15.1,28.70,North,0,0.0,0.0,24,0.00,,,0.00,LWC V2.00 B2112,2013-02-05 10:29:00,
2013-02-05 05:34:00,14.9,-15.3,28.70,NNW,342,0.0,0.0,24,0.00,,,0.00,LWC V2.00 B2112,2013-02-05 10:34:00,
2013-02-05 05:39:00,14.9,-15.3,28.70,NNW,344,0.0,0.0,24,0.00,,,0.00,LWC V2.00 B2112,2013-02-05 10:39:00,
2013-02-05 05:45:00,14.9,-15.3,28.70,NNW,333,0.0,0.0,24,0.00,,,0.00,LWC V2.00 B2112,2013-02-05 10:45:00,
2013-02-05 05:50:00,14.9,-15.3,28.70,NNW,334,0.0,0.0,24,0.00,,,0.00,LWC V2.00 B2112,2013-02-05 10:50:00,
2013-02-05 05:55:00,14.9,-15.3,28.70,NNW,341,0.0,0.0,24,0.00,,,0.00,LWC V2.00 B2112,2013-02-05 10:55:00,
2013-02-05 06:00:00,14.9,-15.3,28.70,NNW,338,0.0,0.0,24,0.00,,,0.00,LWC V2.00 B2112,2013-02-05 11:00:00,
2013-02-05 06:05:00,14.9,-15.3,28.70,North,350,0.0,0.0,24,0.00,,,0.00,LWC V2.00 B2112,2013-02-05 11:05:00,
2013-02-05 06:10:00,14.9,-15.3,28.70,NNW,337,0.0,0.0,24,0.00,,,0.00,LWC V2.00 B2112,2013-02-05 11:10:00,
2013-02-05 06:15:00,14.9,-15.3,28.70,NNW,333,0.0,0.0,24,0.00,,,0.00,LWC V2.00 B2112,2013-02-05 11:15:00,
2013-02-05 06:20:00,15.3,-15.0,28.70,North,7,0.0,0.0,24,0.00,,,0.00,LWC V2.00 B2112,2013-02-05 11:20:00,
2013-02-05 06:25:00,14.9,-15.3,28.70,NNW,337,0.0,0.0,24,0.00,,,0.00,LWC V2.00 B2112,2013-02-05 11:25:00,
2013-02-05 06:30:00,15.1,-15.1,28.70,North,7,0.0,0.0,24,0.00,,,0.00,LWC V2.00 B2112,2013-02-05 11:30:00,
2013-02-05 06:35:00,15.1,-15.1,28.70,North,5,0.0,0.0,24,0.00,,,0.00,LWC V2.00 B2112,2013-02-05 11:35:00,
2013-02-05 06:40:00,15.3,-15.0,28.70,North,8,0.0,0.0,24,0.00,,,0.00,LWC V2.00 B2112,2013-02-05 11:40:00,
2013-02-05 06:45:00,15.3,-15.0,28.70,North,7,0.0,3.6,24,0.00,,,0.00,LWC V2.00 B2112,2013-02-05 11:45:00,
2013-02-05 06:50:00,15.3,-15.0,28.70,North,0,0.0,3.6,24,0.00,,,0.00,LWC V2.00 B2112,2013-02-05 11:50:00,
2013-02-05 06:55:00,15.3,-15.0,28.70,North,7,0.0,3.6,24,0.00,,,0.00,LWC V2.00 B2112,2013-02-05 11:55:00,
2013-02-05 07:00:00,15.3,-15.0,28.70,North,7,0.0,3.6,24,0.00,,,0.00,LWC V2.00 B2112,2013-02-05 12:00:00,
2013-02-05 07:05:00,15.3,-15.0,28.73,NW,325,0.0,3.6,24,0.00,,,0.00,LWC V2.00 B2112,2013-02-05 12:05:00,
2013-02-05 07:10:00,15.3,-15.0,28.70,North,8,0.0,3.6,24,0.00,,,0.00,LWC V2.00 B2112,2013-02-05 12:10:00,
2013-02-05 07:15:00,15.3,-15.0,28.73,NNW,327,0.0,3.6,24,0.00,,,0.00,LWC V2.00 B2112,2013-02-05 12:15:00,
2013-02-05 07:20:00,15.3,-15.0,28.73,NW,325,0.0,3.6,24,0.00,,,0.00,LWC V2.00 B2112,2013-02-05 12:20:00,
2013-02-05 07:25:00,15.3,-15.0,28.73,North,350,2.2,3.6,24,0.00,,,0.00,LWC V2.00 B2112,2013-02-05 12:25:00,
2013-02-05 07:30:00,15.3,-15.0,28.73,NW,309,2.2,3.6,24,0.00,,,0.00,LWC V2.00 B2112,2013-02-05 12:30:00,
2013-02-05 07:35:00,15.3,-15.0,28.73,NW,323,0.0,3.6,24,0.00,,,0.00,LWC V2.00 B2112,2013-02-05 12:35:00,
2013-02-05 07:40:00,15.3,-15.0,28.73,NW,310,0.0,3.6,24,0.00,,,0.00,LWC V2.00 B2112,2013-02-05 12:40:00,
2013-02-05 07:45:00,15.3,-15.0,28.73,NW,325,0.0,3.6,24,0.00,,,0.00,LWC V2.00 B2112,2013-02-05 12:45:00,
2013-02-05 07:50:00,15.4,-14.8,28.73,NW,310,0.0,3.6,24,0.00,,,0.00,LWC V2.00 B2112,2013-02-05 12:50:00,
2013-02-05 07:55:00,15.6,-14.7,28.73,NW,325,0.0,3.6,24,0.00,,,0.00,LWC V2.00 B2112,2013-02-05 12:55:00,
2013-02-05 08:00:00,15.4,-14.8,28.73,NW,310,0.0,3.6,24,0.00,,,0.00,LWC V2.00 B2112,2013-02-05 13:00:00,
2013-02-05 08:05:00,15.6,-14.7,28.76,NW,310,0.0,3.1,24,0.00,,,0.00,LWC V2.00 B2112,2013-02-05 13:05:00,
2013-02-05 08:10:00,15.6,-14.7,28.76,NW,310,0.0,0.0,24,0.00,,,0.00,LWC V2.00 B2112,2013-02-05 13:10:00,
2013-02-05 08:15:00,15.4,-14.8,28.73,NW,310,0.0,2.7,24,0.00,,,0.00,LWC V2.00 B2112,2013-02-05 13:15:00,
2013-02-05 08:20:00,15.6,-14.7,28.76,NW,310,0.0,2.7,24,0.00,,,0.00,LWC V2.00 B2112,2013-02-05 13:20:00,
2013-02-05 08:25:00,15.8,-14.5,28.76,West,271,2.2,2.7,24,0.00,,,0.00,LWC V2.00 B2112,2013-02-05 13:25:00,
2013-02-05 08:30:00,15.6,-14.7,28.73,NW,310,0.0,2.7,24,0.00,,,0.00,LWC V2.00 B2112,2013-02-05 13:30:00,
2013-02-05 08:35:00,15.8,-14.5,28.76,West,276,2.7,3.1,24,0.00,,,0.00,LWC V2.00 B2112,2013-02-05 13:35:00,
2013-02-05 08:40:00,16.7,-14.6,28.76,West,271,2.2,3.1,23,0.00,,,0.00,LWC V2.00 B2112,2013-02-05 13:40:00,
2013-02-05 08:45:00,16.7,-14.6,28.76,WNW,293,0.0,3.6,23,0.00,,,0.00,LWC V2.00 B2112,2013-02-05 13:45:00,
2013-02-05 08:50:00,16.7,-14.6,28.76,West,270,0.0,3.6,23,0.00,,,0.00,LWC V2.00 B2112,2013-02-05 13:50:00,
2013-02-05 08:55:00,16.7,-14.6,28.76,WNW,301,0.0,4.0,23,0.00,,,0.00,LWC V2.00 B2112,2013-02-05 13:55:00,
2013-02-05 09:00:00,16.7,-14.6,28.76,West,271,3.1,4.0,23,0.00,,,0.00,LWC V2.00 B2112,2013-02-05 14:00:00,
2013-02-05 09:05:00,16.7,-14.6,28.76,WNW,301,0.0,4.0,23,0.00,,,0.00,LWC V2.00 B2112,2013-02-05 14:05:00,
2013-02-05 09:10:00,16.7,-14.6,28.76,WNW,293,0.0,4.0,23,0.00,,,0.00,LWC V2.00 B2112,2013-02-05 14:10:00,
2013-02-05 09:15:00,17.6,-13.8,28.76,WSW,252,4.0,4.0,23,0.00,,,0.00,LWC V2.00 B2112,2013-02-05 14:15:00,
2013-02-05 09:20:00,17.6,-13.8,28.76,NW,304,0.0,4.9,23,0.00,,,0.00,LWC V2.00 B2112,2013-02-05 14:20:00,
2013-02-05 09:25:00,17.6,-13.8,28.76,West,270,3.6,4.9,23,0.00,,,0.00,LWC V2.00 B2112,2013-02-05 14:25:00,
2013-02-05 09:30:00,17.6,-13.8,28.76,NW,308,0.0,4.9,23,0.00,,,0.00,LWC V2.00 B2112,2013-02-05 14:30:00,
2013-02-05 09:35:00,16.9,-14.4,28.76,West,280,0.0,4.9,23,0.00,,,0.00,LWC V2.00 B2112,2013-02-05 14:35:00,
2013-02-05 09:40:00,17.6,-13.8,28.76,West,261,3.1,4.9,23,0.00,,,0.00,LWC V2.00 B2112,2013-02-05 14:40:00,
2013-02-05 09:45:00,18.5,-13.0,28.76,WSW,247,0.0,4.9,23,0.00,,,0.00,LWC V2.00 B2112,2013-02-05 14:45:00,
2013-02-05 09:50:00,17.6,-13.8,28.76,WNW,299,2.7,4.9,23,0.00,,,0.00,LWC V2.00 B2112,2013-02-05 14:50:00,
2013-02-05 09:55:00,18.5,-13.0,28.76,West,278,3.1,4.9,23,0.00,,,0.00,LWC V2.00 B2112,2013-02-05 14:55:00,
2013-02-05 10:00:00,20.1,-12.6,28.76,West,270,4.0,4.9,22,0.00,,,0.00,LWC V2.00 B2112,2013-02-05 15:00:00,
2013-02-05 10:05:00,18.5,-13.0,28.76,West,270,2.2,5.4,23,0.00,,,0.00,LWC V2.00 B2112,2013-02-05 15:05:00,
2013-02-05 10:10:00,20.1,-12.6,28.76,West,273,2.7,5.4,22,0.00,,,0.00,LWC V2.00 B2112,2013-02-05 15:10:00,
2013-02-05 10:15:00,18.5,-13.0,28.76,SW,236,2.7,5.4,23,0.00,,,0.00,LWC V2.00 B2112,2013-02-05 15:15:00,
2013-02-05 10:20:00,20.1,-12.6,28.76,SW,214,5.4,5.4,22,0.00,,,0.00,LWC V2.00 B2112,2013-02-05 15:20:00,
2013-02-05 10:25:00,20.5,-12.2,28.76,SW,233,3.1,5.4,22,0.00,,,0.00,LWC V2.00 B2112,2013-02-05 15:25:00,
2013-02-05 10:30:00,20.5,-12.2,28.76,SW,229,3.1,5.4,22,0.00,,,0.00,LWC V2.00 B2112,2013-02-05 15:30:00,
2013-02-05 10:35:00,20.1,-12.6,28.76,North,4,2.7,5.4,22,0.00,,,0.00,LWC V2.00 B2112,2013-02-05 15:35:00,
2013-02-05 10:40:00,20.5,-12.2,28.76,North,8,4.0,5.4,22,0.00,,,0.00,LWC V2.00 B2112,2013-02-05 15:40:00,
2013-02-05 10:45:00,21.2,-11.6,28.76,NW,310,2.7,4.9,22,0.00,,,0.00,LWC V2.00 B2112,2013-02-05 15:45:00,
2013-02-05 10:50:00,21.2,-11.6,28.76,SSW,202,3.1,4.9,22,0.00,,,0.00,LWC V2.00 B2112,2013-02-05 15:50:00,
2013-02-05 10:55:00,20.5,-12.2,28.76,North,5,2.2,4.9,22,0.00,,,0.00,LWC V2.00 B2112,2013-02-05 15:55:00,
2013-02-05 11:00:00,21.2,-11.6,28.76,West,270,2.7,4.9,22,0.00,,,0.00,LWC V2.00 B2112,2013-02-05 16:00:00,
2013-02-05 11:05:00,21.2,-11.6,28.76,WSW,241,2.2,4.9,22,0.00,,,0.00,LWC V2.00 B2112,2013-02-05 16:05:00,
2013-02-05 11:10:00,21.2,-11.6,28.76,SSW,208,3.1,4.9,22,0.00,,,0.00,LWC V2.00 B2112,2013-02-05 16:10:00,
2013-02-05 11:15:00,21.2,-11.6,28.76,WNW,294,4.0,4.9,22,0.00,,,0.00,LWC V2.00 B2112,2013-02-05 16:15:00,
2013-02-05 11:21:00,21.9,-11.0,28.73,SSW,198,4.9,6.3,22,0.00,,,0.00,LWC V2.00 B2112,2013-02-05 16:21:00,
2013-02-05 11:26:00,21.9,-11.0,28.76,West,263,0.0,6.3,22,0.00,,,0.00,LWC V2.00 B2112,2013-02-05 16:26:00,
2013-02-05 11:31:00,21.9,-11.0,28.76,SW,219,4.9,6.3,22,0.00,,,0.00,LWC V2.00 B2112,2013-02-05 16:31:00,
2013-02-05 11:36:00,21.9,-11.0,28.73,SSW,196,3.1,6.3,22,0.00,,,0.00,LWC V2.00 B2112,2013-02-05 16:36:00,
2013-02-05 11:41:00,-999.0,-99.9,28.73,SW,223,0.0,6.3,-999,0.00,,,0.00,LWC V2.00 B2112,2013-02-05 16:41:00,
2013-02-05 11:46:00,-999.0,-99.9,28.73,South,188,4.0,6.3,-999,0.00,,,0.00,LWC V2.00 B2112,2013-02-05 16:46:00,
2013-02-05 11:51:00,-999.0,-99.9,28.73,SW,223,3.1,6.3,-999,0.00,,,0.00,LWC V2.00 B2112,2013-02-05 16:51:00,
2013-02-05 11:56:00,-999.0,-99.9,28.73,SSW,194,3.1,6.3,-999,0.00,,,0.00,LWC V2.00 B2112,2013-02-05 16:56:00,
2013-02-05 12:01:00,-999.0,-99.9,28.73,WSW,256,2.7,6.3,-999,0.00,,,0.00,LWC V2.00 B2112,2013-02-05 17:01:00,
2013-02-05 12:06:00,23.5,-9.7,28.73,SE,140,3.6,5.8,22,0.00,,,0.00,LWC V2.00 B2112,2013-02-05 17:06:00,
2013-02-05 12:11:00,23.7,-9.5,28.73,SW,225,0.0,5.8,22,0.00,,,0.00,LWC V2.00 B2112,2013-02-05 17:11:00,
2013-02-05 12:16:00,23.7,-9.5,28.73,WSW,247,2.2,5.8,22,0.00,,,0.00,LWC V2.00 B2112,2013-02-05 17:16:00,
2013-02-05 12:21:00,24.3,-9.0,28.73,West,259,4.0,5.8,22,0.00,,,0.00,LWC V2.00 B2112,2013-02-05 17:21:00,
2013-02-05 12:26:00,24.4,-8.9,28.73,SW,220,4.0,5.8,22,0.00,,,0.00,LWC V2.00 B2112,2013-02-05 17:26:00,
2013-02-05 12:31:00,23.7,-9.5,28.73,SW,235,0.0,5.4,22,0.00,,,0.00,LWC V2.00 B2112,2013-02-05 17:31:00,
2013-02-05 12:36:00,24.4,-8.9,28.70,SW,232,2.7,5.4,22,0.00,,,0.00,LWC V2.00 B2112,2013-02-05 17:36:00,
2013-02-05 12:41:00,24.4,-8.9,28.70,WNW,283,2.7,5.4,22,0.00,,,0.00,LWC V2.00 B2112,2013-02-05 17:41:00,
2013-02-05 12:46:00,23.7,-9.5,28.73,WSW,242,0.0,5.4,22,0.00,,,0.00,LWC V2.00 B2112,2013-02-05 17:46:00,
2013-02-05 12:51:00,24.4,-8.9,28.70,South,182,4.0,5.4,22,0.00,,,0.00,LWC V2.00 B2112,2013-02-05 17:51:00,
2013-02-05 12:56:00,24.4,-8.9,28.70,SSW,202,3.1,5.4,22,0.00,,,0.00,LWC V2.00 B2112,2013-02-05 17:56:00,
2013-02-05 13:01:00,24.4,-8.9,28.70,East,94,0.0,5.4,22,0.00,,,0.00,LWC V2.00 B2112,2013-02-05 18:01:00,
2013-02-05 13:06:00,24.8,-8.6,28.70,West,265,2.7,5.4,22,0.00,,,0.00,LWC V2.00 B2112,2013-02-05 18:06:00,
2013-02-05 13:11:00,24.6,-8.7,28.70,SW,216,2.7,5.4,22,0.00,,,0.00,LWC V2.00 B2112,2013-02-05 18:11:00,
2013-02-05 13:16:00,24.8,-8.6,28.70,West,265,0.0,5.4,22,0.00,,,0.00,LWC V2.00 B2112,2013-02-05 18:16:00,
2013-02-05 13:21:00,26.2,-8.3,28.70,SE,131,0.0,4.0,21,0.00,,,0.00,LWC V2.00 B2112,2013-02-05 18:21:00,
2013-02-05 13:26:00,26.6,-8.0,28.70,East,94,0.0,5.8,21,0.00,,,0.00,LWC V2.00 B2112,2013-02-05 18:26:00,
2013-02-05 13:31:00,24.8,-8.6,28.70,WNW,288,3.1,5.8,22,0.00,,,0.00,LWC V2.00 B2112,2013-02-05 18:31:00,
2013-02-05 13:36:00,24.4,-8.9,28.70,SW,220,3.1,5.8,22,0.00,,,0.00,LWC V2.00 B2112,2013-02-05 18:36:00,
2013-02-05 13:41:00,26.1,-8.5,28.70,ENE,73,3.6,5.8,21,0.00,,,0.00,LWC V2.00 B2112,2013-02-05 18:41:00,
2013-02-05 13:46:00,26.8,-7.9,28.70,SSE,154,2.2,5.8,21,0.00,,,0.00,LWC V2.00 B2112,2013-02-05 18:46:00,
2013-02-05 13:51:00,27.3,-7.4,28.67,East,79,4.0,5.8,21,0.00,,,0.00,LWC V2.00 B2112,2013-02-05 18:51:00,
2013-02-05 13:56:00,28.0,-6.8,28.67,North,5,3.1,5.8,21,0.00,,,0.00,LWC V2.00 B2112,2013-02-05 18:56:00,
2013-02-05 14:01:00,28.4,-6.5,28.67,WSW,249,2.7,5.8,21,0.00,,,0.00,LWC V2.00 B2112,2013-02-05 19:01:00,
2013-02-05 14:06:00,28.6,-7.3,28.67,ENE,69,2.7,5.4,20,0.00,,,0.00,LWC V2.00 B2112,2013-02-05 19:06:00,
2013-02-05 14:11:00,28.2,-6.6,28.67,NE,55,0.0,6.3,21,0.00,,,0.00,LWC V2.00 B2112,2013-02-05 19:11:00,
2013-02-05 14:16:00,28.6,-7.3,28.67,South,190,0.0,6.3,20,0.00,,,0.00,LWC V2.00 B2112,2013-02-05 19:16:00,
2013-02-05 14:21:00,28.4,-6.5,28.67,East,88,5.4,6.3,21,0.00,,,0.00,LWC V2.00 B2112,2013-02-05 19:21:00,
2013-02-05 14:26:00,28.0,-6.8,28.67,East,79,0.0,6.3,21,0.00,,,0.00,LWC V2.00 B2112,2013-02-05 19:26:00,
2013-02-05 14:31:00,28.8,-7.2,28.67,North,0,0.0,6.3,20,0.00,,,0.00,LWC V2.00 B2112,2013-02-05 19:31:00,
2013-02-05 14:36:00,28.9,-7.0,28.67,WNW,290,3.1,6.3,20,0.00,,,0.00,LWC V2.00 B2112,2013-02-05 19:36:00,
2013-02-05 14:41:00,29.3,-6.7,28.67,West,264,4.0,6.3,20,0.00,,,0.00,LWC V2.00 B2112,2013-02-05 19:41:00,
2013-02-05 14:46:00,29.3,-6.7,28.67,WNW,290,3.6,6.3,20,0.00,,,0.00,LWC V2.00 B2112,2013-02-05 19:46:00,
2013-02-05 14:51:00,29.5,-6.6,28.67,WNW,293,2.7,6.3,20,0.00,,,0.00,LWC V2.00 B2112,2013-02-05 19:51:00,
2013-02-05 14:56:00,29.7,-6.4,28.67,West,279,0.0,6.3,20,0.00,,,0.00,LWC V2.00 B2112,2013-02-05 19:56:00,
2013-02-05 15:01:00,29.7,-6.4,28.67,SSW,194,3.1,6.3,20,0.00,,,0.00,LWC V2.00 B2112,2013-02-05 20:01:00,
2013-02-05 15:06:00,29.7,-6.4,28.67,SW,225,0.0,4.9,20,0.00,,,0.00,LWC V2.00 B2112,2013-02-05 20:06:00,
2013-02-05 15:11:00,29.5,-6.6,28.67,NE,44,2.7,5.8,20,0.00,,,0.00,LWC V2.00 B2112,2013-02-05 20:11:00,
2013-02-05 15:16:00,29.7,-6.4,28.67,SSW,194,3.1,5.8,20,0.00,,,0.00,LWC V2.00 B2112,2013-02-05 20:16:00,
2013-02-05 15:21:00,29.7,-6.4,28.67,SW,225,0.0,5.8,20,0.00,,,0.00,LWC V2.00 B2112,2013-02-05 20:21:00,
2013-02-05 15:26:00,29.8,-6.3,28.67,South,191,0.0,5.8,20,0.00,,,0.00,LWC V2.00 B2112,2013-02-05 20:26:00,
2013-02-05 15:31:00,29.8,-6.3,28.67,WNW,286,3.6,5.8,20,0.00,,,0.00,LWC V2.00 B2112,2013-02-05 20:31:00,
2013-02-05 15:36:00,29.3,-6.7,28.67,West,263,2.7,5.8,20,0.00,,,0.00,LWC V2.00 B2112,2013-02-05 20:36:00,
2013-02-05 15:41:00,29.5,-6.6,28.67,SW,220,4.0,5.8,20,0.00,,,0.00,LWC V2.00 B2112,2013-02-05 20:41:00,
2013-02-05 15:46:00,29.7,-6.4,28.67,SSW,206,0.0,5.8,20,0.00,,,0.00,LWC V2.00 B2112,2013-02-05 20:46:00,
2013-02-05 15:51:00,29.5,-6.6,28.67,WSW,257,3.1,5.4,20,0.00,,,0.00,LWC V2.00 B2112,2013-02-05 20:51:00,
2013-02-05 15:56:00,27.9,-6.9,28.64,WSW,243,2.7,5.4,21,0.00,,,0.00,LWC V2.00 B2112,2013-02-05 20:56:00,
2013-02-05 16:01:00,27.5,-7.2,28.67,WSW,253,2.7,5.4,21,0.00,,,0.00,LWC V2.00 B2112,2013-02-05 21:01:00,
2013-02-05 16:06:00,27.7,-7.1,28.67,West,265,2.7,4.0,21,0.00,,,0.00,LWC V2.00 B2112,2013-02-05 21:06:00,
2013-02-05 16:11:00,27.7,-7.1,28.64,West,262,0.0,3.6,21,0.00,,,0.00,LWC V2.00 B2112,2013-02-05 21:11:00,
2013-02-05 16:16:00,27.9,-6.9,28.67,West,261,3.1,3.6,21,0.00,,,0.00,LWC V2.00 B2112,2013-02-05 21:16:00,
2013-02-05 16:21:00,27.1,-7.6,28.67,West,275,0.0,3.6,21,0.00,,,0.00,LWC V2.00 B2112,2013-02-05 21:21:00,
2013-02-05 16:26:00,27.0,-7.7,28.67,West,275,0.0,3.6,21,0.00,,,0.00,LWC V2.00 B2112,2013-02-05 21:26:00,
2013-02-05 16:31:00,27.0,-7.7,28.67,West,275,0.0,3.6,21,0.00,,,0.00,LWC V2.00 B2112,2013-02-05 21:31:00,
2013-02-05 16:36:00,27.0,-7.7,28.67,WNW,301,0.0,3.6,21,0.00,,,0.00,LWC V2.00 B2112,2013-02-05 21:36:00,
2013-02-05 16:41:00,26.8,-7.9,28.67,WNW,301,0.0,2.7,21,0.00,,,0.00,LWC V2.00 B2112,2013-02-05 21:41:00,
2013-02-05 16:46:00,27.0,-7.7,28.67,WNW,301,0.0,2.7,21,0.00,,,0.00,LWC V2.00 B2112,2013-02-05 21:46:00,
2013-02-05 16:51:00,27.0,-7.7,28.67,WNW,302,0.0,0.0,21,0.00,,,0.00,LWC V2.00 B2112,2013-02-05 21:51:00,
2013-02-05 16:56:00,26.8,-7.9,28.64,WNW,302,0.0,0.0,21,0.00,,,0.00,LWC V2.00 B2112,2013-02-05 21:56:00,
2013-02-05 17:01:00,26.8,-7.9,28.64,WNW,302,0.0,0.0,21,0.00,,,0.00,LWC V2.00 B2112,2013-02-05 22:01:00,
2013-02-05 17:06:00,26.8,-7.9,28.64,WNW,303,0.0,0.0,21,0.00,,,0.00,LWC V2.00 B2112,2013-02-05 22:06:00,
2013-02-05 17:11:00,26.4,-8.2,28.64,WNW,303,0.0,0.0,21,0.00,,,0.00,LWC V2.00 B2112,2013-02-05 22:11:00,
2013-02-05 17:16:00,26.4,-8.2,28.64,WNW,303,0.0,0.0,21,0.00,,,0.00,LWC V2.00 B2112,2013-02-05 22:16:00,
2013-02-05 17:21:00,26.4,-8.2,28.64,WNW,303,0.0,0.0,21,0.00,,,0.00,LWC V2.00 B2112,2013-02-05 22:21:00,
2013-02-05 17:26:00,26.6,-8.0,28.64,WNW,303,0.0,0.0,21,0.00,,,0.00,LWC V2.00 B2112,2013-02-05 22:26:00,
2013-02-05 17:31:00,26.4,-8.2,28.64,WNW,303,0.0,0.0,21,0.00,,,0.00,LWC V2.00 B2112,2013-02-05 22:31:00,
2013-02-05 17:36:00,26.2,-8.3,28.64,WNW,303,0.0,0.0,21,0.00,,,0.00,LWC V2.00 B2112,2013-02-05 22:36:00,
2013-02-05 17:41:00,26.2,-8.3,28.64,WNW,303,0.0,0.0,21,0.00,,,0.00,LWC V2.00 B2112,2013-02-05 22:41:00,
2013-02-05 17:46:00,26.1,-8.5,28.64,NW,304,0.0,0.0,21,0.00,,,0.00,LWC V2.00 B2112,2013-02-05 22:46:00,
2013-02-05 17:51:00,26.1,-8.5,28.64,NW,304,0.0,0.0,21,0.00,,,0.00,LWC V2.00 B2112,2013-02-05 22:51:00,
2013-02-05 17:56:00,26.1,-8.5,28.64,NW,304,0.0,0.0,21,0.00,,,0.00,LWC V2.00 B2112,2013-02-05 22:56:00,
2013-02-05 18:01:00,25.7,-8.8,28.64,NW,326,0.0,0.0,21,0.00,,,0.00,LWC V2.00 B2112,2013-02-05 23:01:00,
2013-02-05 18:06:00,25.5,-8.9,28.64,NW,326,0.0,0.0,21,0.00,,,0.00,LWC V2.00 B2112,2013-02-05 23:06:00,
2013-02-05 18:11:00,25.9,-8.6,28.64,NW,326,0.0,0.0,21,0.00,,,0.00,LWC V2.00 B2112,2013-02-05 23:11:00,
2013-02-05 18:16:00,25.9,-8.6,28.64,NW,326,0.0,0.0,21,0.00,,,0.00,LWC V2.00 B2112,2013-02-05 23:16:00,
2013-02-05 18:21:00,25.7,-8.8,28.64,NW,326,0.0,0.0,21,0.00,,,0.00,LWC V2.00 B2112,2013-02-05 23:21:00,
2013-02-05 18:26:00,25.7,-8.8,28.64,NW,326,0.0,0.0,21,0.00,,,0.00,LWC V2.00 B2112,2013-02-05 23:26:00,
2013-02-05 18:31:00,25.7,-8.8,28.64,NW,326,0.0,0.0,21,0.00,,,0.00,LWC V2.00 B2112,2013-02-05 23:31:00,
2013-02-05 18:36:00,25.3,-9.1,28.64,NW,326,0.0,0.0,21,0.00,,,0.00,LWC V2.00 B2112,2013-02-05 23:36:00,
2013-02-05 18:41:00,25.5,-8.9,28.64,SW,220,0.0,0.0,21,0.00,,,0.00,LWC V2.00 B2112,2013-02-05 23:41:00,
2013-02-05 18:46:00,25.5,-8.9,28.64,SW,220,0.0,0.0,21,0.00,,,0.00,LWC V2.00 B2112,2013-02-05 23:46:00,
2013-02-05 18:51:00,25.5,-8.9,28.64,SW,220,0.0,0.0,21,0.00,,,0.00,LWC V2.00 B2112,2013-02-05 23:51:00,
2013-02-05 18:56:00,25.3,-9.1,28.64,SW,220,0.0,0.0,21,0.00,,,0.00,LWC V2.00 B2112,2013-02-05 23:56:00,
2013-02-05 19:01:00,25.3,-9.1,28.64,SW,220,0.0,0.0,21,0.00,,,0.00,LWC V2.00 B2112,2013-02-06 00:01:00,
2013-02-05 19:06:00,25.3,-9.1,28.64,SW,220,0.0,0.0,21,0.00,,,0.00,LWC V2.00 B2112,2013-02-06 00:06:00,
2013-02-05 19:11:00,25.3,-9.1,28.64,SW,220,0.0,0.0,21,0.00,,,0.00,LWC V2.00 B2112,2013-02-06 00:11:00,
2013-02-05 19:16:00,25.3,-9.1,28.64,SW,220,0.0,0.0,21,0.00,,,0.00,LWC V2.00 B2112,2013-02-06 00:16:00,
2013-02-05 19:21:00,24.4,-8.9,28.64,WSW,243,0.0,0.0,22,0.00,,,0.00,LWC V2.00 B2112,2013-02-06 00:21:00,
2013-02-05 19:26:00,24.6,-8.7,28.64,SW,220,0.0,0.0,22,0.00,,,0.00,LWC V2.00 B2112,2013-02-06 00:26:00,
2013-02-05 19:31:00,24.6,-8.7,28.64,SW,220,0.0,0.0,22,0.00,,,0.00,LWC V2.00 B2112,2013-02-06 00:31:00,
2013-02-05 19:36:00,24.6,-8.7,28.64,SW,220,0.0,0.0,22,0.00,,,0.00,LWC V2.00 B2112,2013-02-06 00:36:00,
2013-02-05 19:41:00,25.0,-9.4,28.64,SW,220,0.0,0.0,21,0.00,,,0.00,LWC V2.00 B2112,2013-02-06 00:41:00,
2013-02-05 19:46:00,25.2,-9.2,28.64,SW,220,0.0,0.0,21,0.00,,,0.00,LWC V2.00 B2112,2013-02-06 00:46:00,
2013-02-05 19:51:00,24.6,-8.7,28.64,SW,220,0.0,0.0,22,0.00,,,0.00,LWC V2.00 B2112,2013-02-06 00:51:00,
2013-02-05 19:56:00,24.6,-8.7,28.67,WSW,243,0.0,0.0,22,0.00,,,0.00,LWC V2.00 B2112,2013-02-06 00:56:00,
2013-02-05 20:01:00,24.6,-8.7,28.67,WSW,243,0.0,0.0,22,0.00,,,0.00,LWC V2.00 B2112,2013-02-06 01:01:00,
2013-02-05 20:06:00,24.3,-9.0,28.67,WSW,243,0.0,0.0,22,0.00,,,0.00,LWC V2.00 B2112,2013-02-06 01:06:00,
2013-02-05 20:11:00,24.6,-8.7,28.64,WSW,243,0.0,0.0,22,0.00,,,0.00,LWC V2.00 B2112,2013-02-06 01:11:00,
2013-02-05 20:16:00,24.6,-8.7,28.64,WSW,243,0.0,0.0,22,0.00,,,0.00,LWC V2.00 B2112,2013-02-06 01:16:00,
2013-02-05 20:21:00,24.6,-8.7,28.67,WSW,243,0.0,0.0,22,0.00,,,0.00,LWC V2.00 B2112,2013-02-06 01:21:00,
2013-02-05 20:26:00,24.6,-8.7,28.64,WSW,243,0.0,0.0,22,0.00,,,0.00,LWC V2.00 B2112,2013-02-06 01:26:00,
2013-02-05 20:31:00,24.6,-8.7,28.64,WSW,243,0.0,0.0,22,0.00,,,0.00,LWC V2.00 B2112,2013-02-06 01:31:00,
2013-02-05 20:36:00,24.6,-8.7,28.67,WSW,243,0.0,0.0,22,0.00,,,0.00,LWC V2.00 B2112,2013-02-06 01:36:00,
2013-02-05 20:41:00,24.4,-8.9,28.67,WSW,243,0.0,0.0,22,0.00,,,0.00,LWC V2.00 B2112,2013-02-06 01:41:00,
2013-02-05 20:46:00,24.3,-9.0,28.67,WSW,243,0.0,0.0,22,0.00,,,0.00,LWC V2.00 B2112,2013-02-06 01:46:00,
2013-02-05 20:51:00,24.8,-8.6,28.64,WSW,243,0.0,0.0,22,0.00,,,0.00,LWC V2.00 B2112,2013-02-06 01:51:00,
2013-02-05 20:56:00,24.4,-8.9,28.64,SSE,161,2.7,2.7,22,0.00,,,0.00,LWC V2.00 B2112,2013-02-06 01:56:00,
2013-02-05 21:01:00,24.6,-8.7,28.64,SSE,161,2.7,2.7,22,0.00,,,0.00,LWC V2.00 B2112,2013-02-06 02:01:00,
2013-02-05 21:06:00,25.2,-9.2,28.64,SE,141,2.7,2.7,21,0.00,,,0.00,LWC V2.00 B2112,2013-02-06 02:06:00,
2013-02-05 21:11:00,24.4,-8.9,28.64,SE,141,2.7,2.7,22,0.00,,,0.00,LWC V2.00 B2112,2013-02-06 02:11:00,
2013-02-05 21:16:00,24.6,-8.7,28.64,SE,141,2.7,2.7,22,0.00,,,0.00,LWC V2.00 B2112,2013-02-06 02:16:00,
2013-02-05 21:21:00,24.8,-8.6,28.64,SE,141,2.7,2.7,22,0.00,,,0.00,LWC V2.00 B2112,2013-02-06 02:21:00,
2013-02-05 21:26:00,25.9,-8.6,28.64,SE,141,2.7,2.7,21,0.00,,,0.00,LWC V2.00 B2112,2013-02-06 02:26:00,
2013-02-05 21:31:00,25.9,-8.6,28.64,SE,141,2.7,2.7,21,0.00,,,0.00,LWC V2.00 B2112,2013-02-06 02:31:00,
2013-02-05 21:36:00,25.3,-9.1,28.64,SE,141,2.7,2.7,21,0.00,,,0.00,LWC V2.00 B2112,2013-02-06 02:36:00,
2013-02-05 21:41:00,24.4,-8.9,28.64,ESE,102,0.0,2.7,22,0.00,,,0.00,LWC V2.00 B2112,2013-02-06 02:41:00,
2013-02-05 21:46:00,25.3,-9.1,28.64,ESE,102,0.0,2.7,21,0.00,,,0.00,LWC V2.00 B2112,2013-02-06 02:46:00,
2013-02-05 21:51:00,25.9,-8.6,28.64,SE,141,2.7,2.7,21,0.00,,,0.00,LWC V2.00 B2112,2013-02-06 02:51:00,
2013-02-05 21:56:00,25.9,-8.6,28.64,SE,141,2.7,2.7,21,0.00,,,0.00,LWC V2.00 B2112,2013-02-06 02:56:00,
2013-02-05 22:01:00,26.1,-8.5,28.64,SSE,161,2.7,2.7,21,0.00,,,0.00,LWC V2.00 B2112,2013-02-06 03:01:00,
2013-02-05 22:06:00,25.3,-9.1,28.64,ESE,102,0.0,2.7,21,0.00,,,0.00,LWC V2.00 B2112,2013-02-06 03:06:00,
2013-02-05 22:11:00,25.3,-9.1,28.64,ESE,102,0.0,2.7,21,0.00,,,0.00,LWC V2.00 B2112,2013-02-06 03:11:00,
2013-02-05 22:16:00,25.7,-8.8,28.64,SE,141,2.7,2.7,21,0.00,,,0.00,LWC V2.00 B2112,2013-02-06 03:16:00,
2013-02-05 22:21:00,25.9,-8.6,28.64,SE,141,2.7,2.7,21,0.00,,,0.00,LWC V2.00 B2112,2013-02-06 03:21:00,
2013-02-05 22:26:00,25.2,-9.2,28.64,ESE,102,0.0,2.7,21,0.00,,,0.00,LWC V2.00 B2112,2013-02-06 03:26:00,
2013-02-05 22:33:00,25.9,-8.6,28.64,ESE,102,0.0,0.0,21,0.00,,,0.00,LWC V2.00 B2112,2013-02-06 03:33:00,
2013-02-05 22:38:00,25.0,-9.4,28.64,West,259,0.0,0.0,21,0.00,,,0.00,LWC V2.00 B2112,2013-02-06 03:38:00,
2013-02-05 22:43:00,24.8,-8.6,28.64,West,259,0.0,0.0,22,0.00,,,0.00,LWC V2.00 B2112,2013-02-06 03:43:00,
2013-02-05 22:48:00,25.3,-9.1,28.64,ESE,102,0.0,0.0,21,0.00,,,0.00,LWC V2.00 B2112,2013-02-06 03:48:00,
2013-02-05 22:53:00,25.9,-8.6,28.64,West,259,0.0,0.0,21,0.00,,,0.00,LWC V2.00 B2112,2013-02-06 03:53:00,
2013-02-05 22:58:00,25.9,-8.6,28.64,ENE,71,0.0,0.0,21,0.00,,,0.00,LWC V2.00 B2112,2013-02-06 03:58:00,
2013-02-05 23:03:00,24.8,-8.6,28.64,West,259,0.0,0.0,22,0.00,,,0.00,LWC V2.00 B2112,2013-02-06 04:03:00,
2013-02-05 23:08:00,25.7,-8.8,28.64,South,176,0.0,0.0,21,0.00,,,0.00,LWC V2.00 B2112,2013-02-06 04:08:00,
2013-02-05 23:13:00,24.8,-8.6,28.64,West,259,0.0,0.0,22,0.00,,,0.00,LWC V2.00 B2112,2013-02-06 04:13:00,
2013-02-05 23:18:00,25.0,-9.4,28.64,SSE,157,2.2,5.8,21,0.00,,,0.00,LWC V2.00 B2112,2013-02-06 04:18:00,
2013-02-05 23:24:00,25.0,-9.4,28.64,South,172,0.0,5.8,21,0.00,,,0.00,LWC V2.00 B2112,2013-02-06 04:24:00,
2013-02-05 23:29:00,25.3,-9.1,28.64,East,80,5.8,5.8,21,0.00,,,0.00,LWC V2.00 B2112,2013-02-06 04:29:00,
2013-02-05 23:34:00,25.0,-9.4,28.64,South,176,0.0,5.8,21,0.00,,,0.00,LWC V2.00 B2112,2013-02-06 04:34:00,
2013-02-05 23:39:00,25.5,-8.9,28.64,SW,218,0.0,5.8,21,0.00,,,0.00,LWC V2.00 B2112,2013-02-06 04:39:00,
2013-02-05 23:44:00,25.5,-8.9,28.64,West,267,2.7,5.8,21,0.00,,,0.00,LWC V2.00 B2112,2013-02-06 04:44:00,
2013-02-05 23:49:00,25.0,-9.4,28.64,South,176,0.0,5.8,21,0.00,,,0.00,LWC V2.00 B2112,2013-02-06 04:49:00,
2013-02-05 23:54:00,25.0,-9.4,28.64,WSW,238,0.0,5.8,21,0.00,,,0.00,LWC V2.00 B2112,2013-02-06 04:54:00,
2013-02-05 23:59:00,25.5,-8.9,28.64,SW,235,2.7,5.8,21,0.00,,,0.00,LWC V2.00 B2112,2013-02-06 04:59:00,